sensor_id;sensor_type;location;lat;lon;timestamp;temperature;humidity
18321;DHT22;54904;54.350;18.664;2023-04-15T00:02:13;14.20;99.40
18321;DHT22;54904;54.350;18.664;2023-04-15T00:04:40;14.20;99.40
18321;DHT22;54904;54.350;18.664;2023-04-15T00:07:07;14.10;99.40
18321;DHT22;54904;54.350;18.664;2023-04-15T00:09:34;14.10;99.50
18321;DHT22;54904;54.350;18.664;2023-04-15T00:12:03;14.00;99.50
18321;DHT22;54904;54.350;18.664;2023-04-15T00:14:33;14.00;99.50
18321;DHT22;54904;54.350;18.664;2023-04-15T00:17:00;14.00;99.50
18321;DHT22;54904;54.350;18.664;2023-04-15T00:19:28;14.00;99.50
18321;DHT22;54904;54.350;18.664;2023-04-15T00:21:55;14.00;99.60
18321;DHT22;54904;54.350;18.664;2023-04-15T00:24:22;14.00;99.60
18321;DHT22;54904;54.350;18.664;2023-04-15T00:26:49;14.00;99.60
18321;DHT22;54904;54.350;18.664;2023-04-15T00:29:17;14.00;99.60
18321;DHT22;54904;54.350;18.664;2023-04-15T00:31:45;14.40;99.60
18321;DHT22;54904;54.350;18.664;2023-04-15T00:34:12;14.00;99.50
18321;DHT22;54904;54.350;18.664;2023-04-15T00:36:42;13.90;99.50
18321;DHT22;54904;54.350;18.664;2023-04-15T00:39:09;13.90;99.50
18321;DHT22;54904;54.350;18.664;2023-04-15T00:41:36;13.90;99.50
18321;DHT22;54904;54.350;18.664;2023-04-15T00:44:05;13.90;99.60
18321;DHT22;54904;54.350;18.664;2023-04-15T00:46:35;13.90;99.60
18321;DHT22;54904;54.350;18.664;2023-04-15T00:49:05;13.90;99.70
18321;DHT22;54904;54.350;18.664;2023-04-15T00:51:33;13.90;99.70
18321;DHT22;54904;54.350;18.664;2023-04-15T00:54:02;13.90;99.70
18321;DHT22;54904;54.350;18.664;2023-04-15T00:56:29;13.90;99.70
18321;DHT22;54904;54.350;18.664;2023-04-15T00:58:57;13.90;99.70
18321;DHT22;54904;54.350;18.664;2023-04-15T01:01:25;14.00;99.70
18321;DHT22;54904;54.350;18.664;2023-04-15T01:03:55;14.00;99.60
18321;DHT22;54904;54.350;18.664;2023-04-15T01:06:24;13.90;99.60
18321;DHT22;54904;54.350;18.664;2023-04-15T01:08:52;13.90;99.60
18321;DHT22;54904;54.350;18.664;2023-04-15T01:11:19;13.90;99.60
18321;DHT22;54904;54.350;18.664;2023-04-15T01:13:50;13.90;99.60
18321;DHT22;54904;54.350;18.664;2023-04-15T01:16:18;13.90;99.60
18321;DHT22;54904;54.350;18.664;2023-04-15T01:18:46;13.90;99.60
18321;DHT22;54904;54.350;18.664;2023-04-15T01:21:13;13.90;99.60
18321;DHT22;54904;54.350;18.664;2023-04-15T01:23:44;13.90;99.90
18321;DHT22;54904;54.350;18.664;2023-04-15T01:26:15;13.90;99.60
18321;DHT22;54904;54.350;18.664;2023-04-15T01:28:45;13.90;99.60
18321;DHT22;54904;54.350;18.664;2023-04-15T01:31:13;13.90;99.90
18321;DHT22;54904;54.350;18.664;2023-04-15T01:33:41;13.80;99.60
18321;DHT22;54904;54.350;18.664;2023-04-15T01:36:09;13.80;99.60
18321;DHT22;54904;54.350;18.664;2023-04-15T01:38:36;13.80;99.70
18321;DHT22;54904;54.350;18.664;2023-04-15T01:41:04;13.80;99.70
18321;DHT22;54904;54.350;18.664;2023-04-15T01:43:34;13.80;99.80
18321;DHT22;54904;54.350;18.664;2023-04-15T01:46:02;13.80;99.80
18321;DHT22;54904;54.350;18.664;2023-04-15T01:48:31;13.80;99.80
18321;DHT22;54904;54.350;18.664;2023-04-15T01:50:58;13.80;99.80
18321;DHT22;54904;54.350;18.664;2023-04-15T01:53:26;13.80;99.70
18321;DHT22;54904;54.350;18.664;2023-04-15T01:55:53;13.80;99.90
18321;DHT22;54904;54.350;18.664;2023-04-15T01:58:20;13.80;99.60
18321;DHT22;54904;54.350;18.664;2023-04-15T02:00:49;13.80;99.70
18321;DHT22;54904;54.350;18.664;2023-04-15T02:03:16;13.80;99.80
18321;DHT22;54904;54.350;18.664;2023-04-15T02:05:43;13.80;99.80
18321;DHT22;54904;54.350;18.664;2023-04-15T02:08:11;13.70;99.80
18321;DHT22;54904;54.350;18.664;2023-04-15T02:10:38;13.80;99.80
18321;DHT22;54904;54.350;18.664;2023-04-15T02:13:05;13.70;99.80
18321;DHT22;54904;54.350;18.664;2023-04-15T02:15:32;13.70;99.90
18321;DHT22;54904;54.350;18.664;2023-04-15T02:18:01;13.70;99.90
18321;DHT22;54904;54.350;18.664;2023-04-15T02:20:28;13.70;99.90
18321;DHT22;54904;54.350;18.664;2023-04-15T02:22:57;13.70;99.90
18321;DHT22;54904;54.350;18.664;2023-04-15T02:25:24;13.70;99.90
18321;DHT22;54904;54.350;18.664;2023-04-15T02:27:51;13.70;99.90
18321;DHT22;54904;54.350;18.664;2023-04-15T02:30:19;13.70;99.90
18321;DHT22;54904;54.350;18.664;2023-04-15T02:32:48;13.70;99.90
18321;DHT22;54904;54.350;18.664;2023-04-15T02:35:17;13.70;99.90
18321;DHT22;54904;54.350;18.664;2023-04-15T02:37:44;13.70;99.90
18321;DHT22;54904;54.350;18.664;2023-04-15T02:40:12;13.70;99.90
18321;DHT22;54904;54.350;18.664;2023-04-15T02:42:40;13.70;99.90
18321;DHT22;54904;54.350;18.664;2023-04-15T02:45:12;13.70;99.90
18321;DHT22;54904;54.350;18.664;2023-04-15T02:47:40;13.70;99.90
18321;DHT22;54904;54.350;18.664;2023-04-15T02:50:11;13.70;99.90
18321;DHT22;54904;54.350;18.664;2023-04-15T02:52:42;13.70;99.90
18321;DHT22;54904;54.350;18.664;2023-04-15T02:55:10;13.70;99.90
18321;DHT22;54904;54.350;18.664;2023-04-15T02:57:37;13.70;99.90
18321;DHT22;54904;54.350;18.664;2023-04-15T03:00:08;13.60;99.90
18321;DHT22;54904;54.350;18.664;2023-04-15T03:02:39;13.70;99.90
18321;DHT22;54904;54.350;18.664;2023-04-15T03:05:10;13.60;99.90
18321;DHT22;54904;54.350;18.664;2023-04-15T03:07:41;13.50;99.90
18321;DHT22;54904;54.350;18.664;2023-04-15T03:10:09;13.50;99.90
18321;DHT22;54904;54.350;18.664;2023-04-15T03:12:37;13.50;99.90
18321;DHT22;54904;54.350;18.664;2023-04-15T03:15:05;13.50;99.90
18321;DHT22;54904;54.350;18.664;2023-04-15T03:17:38;13.50;99.90
18321;DHT22;54904;54.350;18.664;2023-04-15T03:20:07;13.50;99.90
18321;DHT22;54904;54.350;18.664;2023-04-15T03:22:35;13.50;99.90
18321;DHT22;54904;54.350;18.664;2023-04-15T03:25:05;13.50;99.90
18321;DHT22;54904;54.350;18.664;2023-04-15T03:27:32;13.60;99.90
18321;DHT22;54904;54.350;18.664;2023-04-15T03:30:02;13.60;99.90
18321;DHT22;54904;54.350;18.664;2023-04-15T03:32:32;13.70;99.90
18321;DHT22;54904;54.350;18.664;2023-04-15T03:34:59;13.70;99.90
18321;DHT22;54904;54.350;18.664;2023-04-15T03:37:26;13.60;99.90
18321;DHT22;54904;54.350;18.664;2023-04-15T03:39:54;13.60;99.90
18321;DHT22;54904;54.350;18.664;2023-04-15T03:42:22;13.60;99.90
18321;DHT22;54904;54.350;18.664;2023-04-15T03:44:49;13.60;99.90
18321;DHT22;54904;54.350;18.664;2023-04-15T03:47:16;13.60;99.90
18321;DHT22;54904;54.350;18.664;2023-04-15T03:49:44;13.60;99.90
18321;DHT22;54904;54.350;18.664;2023-04-15T03:52:11;13.60;99.90
18321;DHT22;54904;54.350;18.664;2023-04-15T03:54:38;13.60;99.90
18321;DHT22;54904;54.350;18.664;2023-04-15T03:57:05;13.60;99.90
18321;DHT22;54904;54.350;18.664;2023-04-15T03:59:33;13.60;99.90
18321;DHT22;54904;54.350;18.664;2023-04-15T04:02:00;13.60;99.90
18321;DHT22;54904;54.350;18.664;2023-04-15T04:04:27;13.60;99.90
18321;DHT22;54904;54.350;18.664;2023-04-15T04:06:54;13.60;99.90
18321;DHT22;54904;54.350;18.664;2023-04-15T04:09:25;13.60;99.90
18321;DHT22;54904;54.350;18.664;2023-04-15T04:11:52;13.70;99.90
18321;DHT22;54904;54.350;18.664;2023-04-15T04:14:19;13.70;99.90
18321;DHT22;54904;54.350;18.664;2023-04-15T04:16:52;13.70;99.90
18321;DHT22;54904;54.350;18.664;2023-04-15T04:19:19;13.70;99.90
18321;DHT22;54904;54.350;18.664;2023-04-15T04:21:46;13.70;99.90
18321;DHT22;54904;54.350;18.664;2023-04-15T04:24:14;13.80;99.90
18321;DHT22;54904;54.350;18.664;2023-04-15T04:26:41;13.70;99.90
18321;DHT22;54904;54.350;18.664;2023-04-15T04:29:08;13.70;99.90
18321;DHT22;54904;54.350;18.664;2023-04-15T04:31:35;13.70;99.90
18321;DHT22;54904;54.350;18.664;2023-04-15T04:34:04;13.70;99.90
18321;DHT22;54904;54.350;18.664;2023-04-15T04:36:31;13.80;99.90
18321;DHT22;54904;54.350;18.664;2023-04-15T04:38:58;13.80;99.90
18321;DHT22;54904;54.350;18.664;2023-04-15T04:41:26;14.30;99.90
18321;DHT22;54904;54.350;18.664;2023-04-15T04:43:53;14.10;99.90
18321;DHT22;54904;54.350;18.664;2023-04-15T04:46:20;13.70;99.90
18321;DHT22;54904;54.350;18.664;2023-04-15T04:48:48;13.80;99.90
18321;DHT22;54904;54.350;18.664;2023-04-15T04:51:17;13.80;99.90
18321;DHT22;54904;54.350;18.664;2023-04-15T04:53:44;13.80;99.90
18321;DHT22;54904;54.350;18.664;2023-04-15T04:56:11;13.80;99.90
18321;DHT22;54904;54.350;18.664;2023-04-15T04:58:38;13.70;99.90
18321;DHT22;54904;54.350;18.664;2023-04-15T05:01:05;13.70;99.90
18321;DHT22;54904;54.350;18.664;2023-04-15T05:03:32;13.70;99.90
18321;DHT22;54904;54.350;18.664;2023-04-15T05:05:59;13.70;99.90
18321;DHT22;54904;54.350;18.664;2023-04-15T05:08:29;13.70;99.90
18321;DHT22;54904;54.350;18.664;2023-04-15T05:10:56;13.70;99.90
18321;DHT22;54904;54.350;18.664;2023-04-15T05:13:23;13.80;99.90
18321;DHT22;54904;54.350;18.664;2023-04-15T05:15:50;13.80;99.90
18321;DHT22;54904;54.350;18.664;2023-04-15T05:18:18;13.80;99.90
18321;DHT22;54904;54.350;18.664;2023-04-15T05:20:45;13.80;99.90
18321;DHT22;54904;54.350;18.664;2023-04-15T05:23:14;13.80;99.90
18321;DHT22;54904;54.350;18.664;2023-04-15T05:25:43;13.80;99.90
18321;DHT22;54904;54.350;18.664;2023-04-15T05:28:10;13.90;99.90
18321;DHT22;54904;54.350;18.664;2023-04-15T05:30:38;13.80;99.90
18321;DHT22;54904;54.350;18.664;2023-04-15T05:33:06;13.90;99.90
18321;DHT22;54904;54.350;18.664;2023-04-15T05:35:33;13.90;99.90
18321;DHT22;54904;54.350;18.664;2023-04-15T05:38:00;14.00;99.90
18321;DHT22;54904;54.350;18.664;2023-04-15T05:40:27;14.00;99.90
18321;DHT22;54904;54.350;18.664;2023-04-15T05:42:56;14.00;99.90
18321;DHT22;54904;54.350;18.664;2023-04-15T05:45:23;14.00;99.90
18321;DHT22;54904;54.350;18.664;2023-04-15T05:47:50;14.10;99.90
18321;DHT22;54904;54.350;18.664;2023-04-15T05:50:18;14.10;99.90
18321;DHT22;54904;54.350;18.664;2023-04-15T05:52:46;14.20;99.90
18321;DHT22;54904;54.350;18.664;2023-04-15T05:55:15;14.20;99.90
18321;DHT22;54904;54.350;18.664;2023-04-15T05:57:42;14.20;99.90
18321;DHT22;54904;54.350;18.664;2023-04-15T06:00:12;14.30;99.90
18321;DHT22;54904;54.350;18.664;2023-04-15T06:02:43;14.30;99.90
18321;DHT22;54904;54.350;18.664;2023-04-15T06:05:10;14.40;99.90
18321;DHT22;54904;54.350;18.664;2023-04-15T06:07:37;14.40;99.90
18321;DHT22;54904;54.350;18.664;2023-04-15T06:10:05;14.40;99.90
18321;DHT22;54904;54.350;18.664;2023-04-15T06:12:33;14.40;99.90
18321;DHT22;54904;54.350;18.664;2023-04-15T06:15:00;14.40;99.90
18321;DHT22;54904;54.350;18.664;2023-04-15T06:17:29;14.40;99.90
18321;DHT22;54904;54.350;18.664;2023-04-15T06:19:56;14.30;99.90
18321;DHT22;54904;54.350;18.664;2023-04-15T06:22:23;14.30;99.90
18321;DHT22;54904;54.350;18.664;2023-04-15T06:24:51;14.40;99.90
18321;DHT22;54904;54.350;18.664;2023-04-15T06:27:18;14.40;99.90
18321;DHT22;54904;54.350;18.664;2023-04-15T06:29:45;14.40;99.90
18321;DHT22;54904;54.350;18.664;2023-04-15T06:32:15;14.40;99.90
18321;DHT22;54904;54.350;18.664;2023-04-15T06:34:43;14.40;99.90
18321;DHT22;54904;54.350;18.664;2023-04-15T06:37:11;14.40;99.90
18321;DHT22;54904;54.350;18.664;2023-04-15T06:39:40;14.40;99.70
18321;DHT22;54904;54.350;18.664;2023-04-15T06:42:09;14.40;99.50
18321;DHT22;54904;54.350;18.664;2023-04-15T06:44:36;14.40;99.40
18321;DHT22;54904;54.350;18.664;2023-04-15T06:47:04;14.40;99.30
18321;DHT22;54904;54.350;18.664;2023-04-15T06:49:31;14.40;99.30
18321;DHT22;54904;54.350;18.664;2023-04-15T06:51:59;14.50;99.30
18321;DHT22;54904;54.350;18.664;2023-04-15T06:54:27;14.50;99.30
18321;DHT22;54904;54.350;18.664;2023-04-15T06:56:54;14.50;99.20
18321;DHT22;54904;54.350;18.664;2023-04-15T06:59:21;14.50;99.10
18321;DHT22;54904;54.350;18.664;2023-04-15T07:01:48;14.50;98.80
18321;DHT22;54904;54.350;18.664;2023-04-15T07:04:18;14.50;98.70
18321;DHT22;54904;54.350;18.664;2023-04-15T07:06:46;14.50;98.70
18321;DHT22;54904;54.350;18.664;2023-04-15T07:09:14;14.60;98.70
18321;DHT22;54904;54.350;18.664;2023-04-15T07:11:43;14.60;98.70
18321;DHT22;54904;54.350;18.664;2023-04-15T07:14:10;14.70;98.70
18321;DHT22;54904;54.350;18.664;2023-04-15T07:16:37;14.70;98.70
18321;DHT22;54904;54.350;18.664;2023-04-15T07:19:05;14.80;98.70
18321;DHT22;54904;54.350;18.664;2023-04-15T07:21:32;14.80;98.50
18321;DHT22;54904;54.350;18.664;2023-04-15T07:23:59;14.90;98.40
18321;DHT22;54904;54.350;18.664;2023-04-15T07:26:27;14.80;98.20
18321;DHT22;54904;54.350;18.664;2023-04-15T07:28:55;14.80;97.80
18321;DHT22;54904;54.350;18.664;2023-04-15T07:31:22;14.80;97.80
18321;DHT22;54904;54.350;18.664;2023-04-15T07:33:49;14.80;97.80
18321;DHT22;54904;54.350;18.664;2023-04-15T07:36:16;14.70;97.80
18321;DHT22;54904;54.350;18.664;2023-04-15T07:38:43;14.70;97.90
18321;DHT22;54904;54.350;18.664;2023-04-15T07:41:10;14.70;98.00
18321;DHT22;54904;54.350;18.664;2023-04-15T07:43:39;14.70;97.90
18321;DHT22;54904;54.350;18.664;2023-04-15T07:46:06;14.70;97.90
18321;DHT22;54904;54.350;18.664;2023-04-15T07:48:33;14.60;97.80
18321;DHT22;54904;54.350;18.664;2023-04-15T07:51:00;14.60;97.90
18321;DHT22;54904;54.350;18.664;2023-04-15T07:53:28;14.60;97.90
18321;DHT22;54904;54.350;18.664;2023-04-15T07:55:55;14.60;98.00
18321;DHT22;54904;54.350;18.664;2023-04-15T07:58:23;14.60;97.90
18321;DHT22;54904;54.350;18.664;2023-04-15T08:00:52;14.60;97.90
18321;DHT22;54904;54.350;18.664;2023-04-15T08:03:20;14.60;98.00
18321;DHT22;54904;54.350;18.664;2023-04-15T08:05:48;14.60;98.00
18321;DHT22;54904;54.350;18.664;2023-04-15T08:08:15;14.50;98.00
18321;DHT22;54904;54.350;18.664;2023-04-15T08:10:42;14.50;98.00
18321;DHT22;54904;54.350;18.664;2023-04-15T08:13:09;14.50;98.00
18321;DHT22;54904;54.350;18.664;2023-04-15T08:15:37;14.50;98.00
18321;DHT22;54904;54.350;18.664;2023-04-15T08:18:05;14.60;98.00
18321;DHT22;54904;54.350;18.664;2023-04-15T08:20:35;14.50;97.90
18321;DHT22;54904;54.350;18.664;2023-04-15T08:23:02;14.50;97.90
18321;DHT22;54904;54.350;18.664;2023-04-15T08:25:29;14.50;98.00
18321;DHT22;54904;54.350;18.664;2023-04-15T08:27:56;14.50;98.00
18321;DHT22;54904;54.350;18.664;2023-04-15T08:30:23;14.40;98.00
18321;DHT22;54904;54.350;18.664;2023-04-15T08:32:50;14.40;98.10
18321;DHT22;54904;54.350;18.664;2023-04-15T08:35:19;14.40;98.00
18321;DHT22;54904;54.350;18.664;2023-04-15T08:37:46;14.40;98.00
18321;DHT22;54904;54.350;18.664;2023-04-15T08:40:14;14.50;98.10
18321;DHT22;54904;54.350;18.664;2023-04-15T08:42:43;14.50;98.10
18321;DHT22;54904;54.350;18.664;2023-04-15T08:45:15;14.60;98.10
18321;DHT22;54904;54.350;18.664;2023-04-15T08:47:44;14.60;98.10
18321;DHT22;54904;54.350;18.664;2023-04-15T08:50:13;14.70;98.10
18321;DHT22;54904;54.350;18.664;2023-04-15T08:52:43;14.70;98.20
18321;DHT22;54904;54.350;18.664;2023-04-15T08:55:11;14.70;98.20
18321;DHT22;54904;54.350;18.664;2023-04-15T08:57:39;14.70;98.10
18321;DHT22;54904;54.350;18.664;2023-04-15T09:00:07;14.70;98.10
18321;DHT22;54904;54.350;18.664;2023-04-15T09:02:35;14.70;98.00
18321;DHT22;54904;54.350;18.664;2023-04-15T09:05:06;14.80;98.00
18321;DHT22;54904;54.350;18.664;2023-04-15T09:07:33;14.70;98.00
18321;DHT22;54904;54.350;18.664;2023-04-15T09:10:04;14.70;97.90
18321;DHT22;54904;54.350;18.664;2023-04-15T09:12:33;14.70;97.80
18321;DHT22;54904;54.350;18.664;2023-04-15T09:15:01;14.70;97.90
18321;DHT22;54904;54.350;18.664;2023-04-15T09:17:28;14.80;98.00
18321;DHT22;54904;54.350;18.664;2023-04-15T09:20:08;14.80;98.00
18321;DHT22;54904;54.350;18.664;2023-04-15T09:22:35;14.70;98.00
18321;DHT22;54904;54.350;18.664;2023-04-15T09:25:24;14.80;98.00
18321;DHT22;54904;54.350;18.664;2023-04-15T09:27:54;14.80;98.00
18321;DHT22;54904;54.350;18.664;2023-04-15T09:30:21;14.80;98.00
18321;DHT22;54904;54.350;18.664;2023-04-15T09:32:49;14.80;98.00
18321;DHT22;54904;54.350;18.664;2023-04-15T09:35:17;14.80;98.00
18321;DHT22;54904;54.350;18.664;2023-04-15T09:37:44;14.70;97.90
18321;DHT22;54904;54.350;18.664;2023-04-15T09:40:13;14.70;98.00
18321;DHT22;54904;54.350;18.664;2023-04-15T09:42:53;14.80;98.00
18321;DHT22;54904;54.350;18.664;2023-04-15T09:45:22;14.80;98.00
18321;DHT22;54904;54.350;18.664;2023-04-15T09:47:49;14.70;98.00
18321;DHT22;54904;54.350;18.664;2023-04-15T09:50:18;14.70;98.00
18321;DHT22;54904;54.350;18.664;2023-04-15T09:52:46;14.70;97.90
18321;DHT22;54904;54.350;18.664;2023-04-15T09:55:17;14.70;97.90
18321;DHT22;54904;54.350;18.664;2023-04-15T09:57:45;14.70;98.00
18321;DHT22;54904;54.350;18.664;2023-04-15T10:00:13;14.70;98.00
18321;DHT22;54904;54.350;18.664;2023-04-15T10:02:41;14.70;98.00
18321;DHT22;54904;54.350;18.664;2023-04-15T10:05:10;14.70;98.00
18321;DHT22;54904;54.350;18.664;2023-04-15T10:07:39;14.70;98.00
18321;DHT22;54904;54.350;18.664;2023-04-15T10:10:08;14.70;98.00
18321;DHT22;54904;54.350;18.664;2023-04-15T10:12:40;14.70;98.00
18321;DHT22;54904;54.350;18.664;2023-04-15T10:15:13;14.70;98.00
18321;DHT22;54904;54.350;18.664;2023-04-15T10:17:43;14.60;98.00
18321;DHT22;54904;54.350;18.664;2023-04-15T10:20:11;14.70;98.10
18321;DHT22;54904;54.350;18.664;2023-04-15T10:22:40;14.60;98.00
18321;DHT22;54904;54.350;18.664;2023-04-15T10:25:09;14.60;97.90
18321;DHT22;54904;54.350;18.664;2023-04-15T10:27:39;14.60;97.90
18321;DHT22;54904;54.350;18.664;2023-04-15T10:30:08;14.60;97.90
18321;DHT22;54904;54.350;18.664;2023-04-15T10:32:36;14.60;97.90
18321;DHT22;54904;54.350;18.664;2023-04-15T10:35:05;14.70;98.00
18321;DHT22;54904;54.350;18.664;2023-04-15T10:37:35;14.70;97.90
18321;DHT22;54904;54.350;18.664;2023-04-15T10:40:27;14.70;97.90
18321;DHT22;54904;54.350;18.664;2023-04-15T10:42:58;14.80;97.90
18321;DHT22;54904;54.350;18.664;2023-04-15T10:45:27;14.70;97.90
18321;DHT22;54904;54.350;18.664;2023-04-15T10:47:56;14.80;97.90
18321;DHT22;54904;54.350;18.664;2023-04-15T10:50:25;14.80;97.90
18321;DHT22;54904;54.350;18.664;2023-04-15T10:52:55;14.80;97.90
18321;DHT22;54904;54.350;18.664;2023-04-15T10:55:24;14.80;97.90
18321;DHT22;54904;54.350;18.664;2023-04-15T10:57:53;14.80;97.90
18321;DHT22;54904;54.350;18.664;2023-04-15T11:00:25;14.70;97.90
18321;DHT22;54904;54.350;18.664;2023-04-15T11:02:54;14.60;98.00
18321;DHT22;54904;54.350;18.664;2023-04-15T11:05:22;14.60;98.00
18321;DHT22;54904;54.350;18.664;2023-04-15T11:07:52;14.60;98.10
18321;DHT22;54904;54.350;18.664;2023-04-15T11:10:49;14.50;98.10
18321;DHT22;54904;54.350;18.664;2023-04-15T11:13:21;14.50;98.00
18321;DHT22;54904;54.350;18.664;2023-04-15T11:15:55;14.60;98.00
18321;DHT22;54904;54.350;18.664;2023-04-15T11:18:24;14.60;98.10
18321;DHT22;54904;54.350;18.664;2023-04-15T11:20:54;14.60;98.10
18321;DHT22;54904;54.350;18.664;2023-04-15T11:23:28;14.70;98.10
18321;DHT22;54904;54.350;18.664;2023-04-15T11:25:56;14.70;97.90
18321;DHT22;54904;54.350;18.664;2023-04-15T11:28:25;14.70;97.90
18321;DHT22;54904;54.350;18.664;2023-04-15T11:30:55;14.70;97.90
18321;DHT22;54904;54.350;18.664;2023-04-15T11:33:23;14.70;97.90
18321;DHT22;54904;54.350;18.664;2023-04-15T11:35:52;14.70;97.90
18321;DHT22;54904;54.350;18.664;2023-04-15T11:38:19;14.70;97.90
18321;DHT22;54904;54.350;18.664;2023-04-15T11:40:48;14.80;97.90
18321;DHT22;54904;54.350;18.664;2023-04-15T11:43:17;14.90;98.00
18321;DHT22;54904;54.350;18.664;2023-04-15T11:45:50;15.00;97.90
18321;DHT22;54904;54.350;18.664;2023-04-15T11:48:21;15.00;97.80
18321;DHT22;54904;54.350;18.664;2023-04-15T11:50:53;15.10;97.70
18321;DHT22;54904;54.350;18.664;2023-04-15T11:53:21;15.20;97.60
18321;DHT22;54904;54.350;18.664;2023-04-15T11:55:50;15.20;97.50
18321;DHT22;54904;54.350;18.664;2023-04-15T11:58:20;15.30;97.40
18321;DHT22;54904;54.350;18.664;2023-04-15T12:00:48;15.30;97.40
18321;DHT22;54904;54.350;18.664;2023-04-15T12:03:25;15.40;97.30
18321;DHT22;54904;54.350;18.664;2023-04-15T12:06:09;15.50;97.30
18321;DHT22;54904;54.350;18.664;2023-04-15T12:08:59;15.60;97.30
18321;DHT22;54904;54.350;18.664;2023-04-15T12:11:29;15.70;97.10
18321;DHT22;54904;54.350;18.664;2023-04-15T12:14:19;15.80;97.10
18321;DHT22;54904;54.350;18.664;2023-04-15T12:16:48;15.80;97.10
18321;DHT22;54904;54.350;18.664;2023-04-15T12:19:23;15.80;96.70
18321;DHT22;54904;54.350;18.664;2023-04-15T12:21:52;15.60;96.50
18321;DHT22;54904;54.350;18.664;2023-04-15T12:24:20;15.50;96.60
18321;DHT22;54904;54.350;18.664;2023-04-15T12:26:49;15.40;96.80
18321;DHT22;54904;54.350;18.664;2023-04-15T12:29:17;15.40;96.90
18321;DHT22;54904;54.350;18.664;2023-04-15T12:31:50;15.30;96.90
18321;DHT22;54904;54.350;18.664;2023-04-15T12:34:27;15.30;97.00
18321;DHT22;54904;54.350;18.664;2023-04-15T12:36:54;15.30;97.10
18321;DHT22;54904;54.350;18.664;2023-04-15T12:39:23;15.20;97.10
18321;DHT22;54904;54.350;18.664;2023-04-15T12:41:50;15.10;97.00
18321;DHT22;54904;54.350;18.664;2023-04-15T12:44:17;15.10;97.20
18321;DHT22;54904;54.350;18.664;2023-04-15T12:46:45;15.00;97.20
18321;DHT22;54904;54.350;18.664;2023-04-15T12:49:12;14.90;97.30
18321;DHT22;54904;54.350;18.664;2023-04-15T12:51:42;14.90;97.50
18321;DHT22;54904;54.350;18.664;2023-04-15T12:54:09;14.80;97.50
18321;DHT22;54904;54.350;18.664;2023-04-15T12:56:37;14.80;97.60
18321;DHT22;54904;54.350;18.664;2023-04-15T12:59:04;14.80;97.70
18321;DHT22;54904;54.350;18.664;2023-04-15T13:01:32;14.70;97.70
18321;DHT22;54904;54.350;18.664;2023-04-15T13:03:59;14.70;97.80
18321;DHT22;54904;54.350;18.664;2023-04-15T13:06:26;14.70;97.90
18321;DHT22;54904;54.350;18.664;2023-04-15T13:08:55;14.70;97.90
18321;DHT22;54904;54.350;18.664;2023-04-15T13:11:22;14.60;98.00
18321;DHT22;54904;54.350;18.664;2023-04-15T13:13:50;14.70;98.10
18321;DHT22;54904;54.350;18.664;2023-04-15T13:16:18;14.70;98.20
18321;DHT22;54904;54.350;18.664;2023-04-15T13:18:46;14.70;98.20
18321;DHT22;54904;54.350;18.664;2023-04-15T13:21:14;14.60;98.20
18321;DHT22;54904;54.350;18.664;2023-04-15T13:23:41;14.60;98.20
18321;DHT22;54904;54.350;18.664;2023-04-15T13:26:10;14.60;98.20
18321;DHT22;54904;54.350;18.664;2023-04-15T13:28:37;14.60;98.30
18321;DHT22;54904;54.350;18.664;2023-04-15T13:31:04;14.60;98.40
18321;DHT22;54904;54.350;18.664;2023-04-15T13:33:31;14.60;98.40
18321;DHT22;54904;54.350;18.664;2023-04-15T13:35:58;14.60;98.50
18321;DHT22;54904;54.350;18.664;2023-04-15T13:38:26;14.50;98.50
18321;DHT22;54904;54.350;18.664;2023-04-15T13:40:53;14.50;98.50
18321;DHT22;54904;54.350;18.664;2023-04-15T13:43:21;14.60;98.60
18321;DHT22;54904;54.350;18.664;2023-04-15T13:45:48;14.50;98.60
18321;DHT22;54904;54.350;18.664;2023-04-15T13:48:16;14.50;98.60
18321;DHT22;54904;54.350;18.664;2023-04-15T13:50:43;14.50;98.70
18321;DHT22;54904;54.350;18.664;2023-04-15T13:53:10;14.50;98.70
18321;DHT22;54904;54.350;18.664;2023-04-15T13:55:37;14.50;98.80
18321;DHT22;54904;54.350;18.664;2023-04-15T13:58:07;14.60;98.90
18321;DHT22;54904;54.350;18.664;2023-04-15T14:00:35;14.50;98.80
18321;DHT22;54904;54.350;18.664;2023-04-15T14:03:03;14.50;98.70
18321;DHT22;54904;54.350;18.664;2023-04-15T14:05:30;14.50;98.60
18321;DHT22;54904;54.350;18.664;2023-04-15T14:07:58;14.50;98.60
18321;DHT22;54904;54.350;18.664;2023-04-15T14:10:25;14.50;98.70
18321;DHT22;54904;54.350;18.664;2023-04-15T14:12:52;14.50;98.70
18321;DHT22;54904;54.350;18.664;2023-04-15T14:15:20;14.50;98.70
18321;DHT22;54904;54.350;18.664;2023-04-15T14:17:48;14.50;98.80
18321;DHT22;54904;54.350;18.664;2023-04-15T14:20:16;14.60;98.90
18321;DHT22;54904;54.350;18.664;2023-04-15T14:22:43;14.60;98.90
18321;DHT22;54904;54.350;18.664;2023-04-15T14:25:10;14.60;98.80
18321;DHT22;54904;54.350;18.664;2023-04-15T14:27:37;14.60;98.90
18321;DHT22;54904;54.350;18.664;2023-04-15T14:30:05;14.60;98.70
18321;DHT22;54904;54.350;18.664;2023-04-15T14:32:32;14.60;98.70
18321;DHT22;54904;54.350;18.664;2023-04-15T14:35:01;14.60;98.80
18321;DHT22;54904;54.350;18.664;2023-04-15T14:37:29;14.60;98.80
18321;DHT22;54904;54.350;18.664;2023-04-15T14:39:56;14.60;98.80
18321;DHT22;54904;54.350;18.664;2023-04-15T14:42:23;14.60;98.70
18321;DHT22;54904;54.350;18.664;2023-04-15T14:44:50;14.60;99.10
18321;DHT22;54904;54.350;18.664;2023-04-15T14:47:17;14.50;98.70
18321;DHT22;54904;54.350;18.664;2023-04-15T14:49:44;14.50;98.70
18321;DHT22;54904;54.350;18.664;2023-04-15T14:52:12;14.50;98.70
18321;DHT22;54904;54.350;18.664;2023-04-15T14:54:40;14.50;98.70
18321;DHT22;54904;54.350;18.664;2023-04-15T14:57:07;14.50;98.70
18321;DHT22;54904;54.350;18.664;2023-04-15T14:59:34;14.50;98.80
18321;DHT22;54904;54.350;18.664;2023-04-15T15:02:01;14.60;98.80
18321;DHT22;54904;54.350;18.664;2023-04-15T15:04:28;14.50;98.80
18321;DHT22;54904;54.350;18.664;2023-04-15T15:06:57;14.50;98.80
18321;DHT22;54904;54.350;18.664;2023-04-15T15:09:26;14.50;98.80
18321;DHT22;54904;54.350;18.664;2023-04-15T15:11:53;14.50;98.80
18321;DHT22;54904;54.350;18.664;2023-04-15T15:14:21;14.50;98.80
18321;DHT22;54904;54.350;18.664;2023-04-15T15:16:48;14.50;98.90
18321;DHT22;54904;54.350;18.664;2023-04-15T15:19:15;14.50;98.90
18321;DHT22;54904;54.350;18.664;2023-04-15T15:21:42;14.40;98.90
18321;DHT22;54904;54.350;18.664;2023-04-15T15:24:10;14.40;99.00